createdAt,value
2024-02-19T00:00:54.874Z,75.95
2024-02-19T00:01:55.070Z,73.75
2024-02-19T00:02:54.960Z,72.60
2024-02-19T00:03:55.021Z,69.90
2024-02-19T00:04:55.053Z,68.05
2024-02-19T00:05:55.097Z,67.52
2024-02-19T00:06:55.152Z,65.63
2024-02-19T00:07:55.313Z,64.19
2024-02-19T00:08:55.220Z,66.68
2024-02-19T00:09:55.232Z,65.11
2024-02-19T00:10:55.222Z,65.83
2024-02-19T00:11:55.255Z,65.06
2024-02-19T00:12:55.446Z,67.52
2024-02-19T00:13:55.357Z,66.61
2024-02-19T00:14:55.422Z,60.94
2024-02-19T00:15:55.476Z,59.50
2024-02-19T00:16:55.460Z,59.05
2024-02-19T00:17:55.579Z,60.50
2024-02-19T00:18:55.814Z,58.06
2024-02-19T00:19:55.666Z,56.86
2024-02-19T00:20:55.689Z,57.92
2024-02-19T00:21:55.745Z,61.75
2024-02-19T00:22:55.825Z,65.11
2024-02-19T00:23:55.831Z,66.90
2024-02-19T00:24:55.867Z,69.16
2024-02-19T00:25:55.903Z,74.81
2024-02-19T00:26:55.963Z,75.80
2024-02-19T00:27:56.043Z,74.12
2024-02-19T00:28:55.968Z,78.46
2024-02-19T00:29:55.941Z,78.76
2024-02-19T00:30:56.097Z,80.21
2024-02-19T00:31:56.144Z,82.00
2024-02-19T00:32:56.280Z,83.80
2024-02-19T00:33:56.444Z,87.22
2024-02-19T00:34:56.302Z,81.78
2024-02-19T00:35:56.304Z,79.40
2024-02-19T00:36:56.416Z,78.03
2024-02-19T00:37:56.425Z,79.65
2024-02-19T00:38:56.442Z,78.19
2024-02-19T00:39:57.013Z,77.14
2024-02-19T00:40:56.524Z,77.06
2024-02-19T00:41:56.549Z,79.60
2024-02-19T00:42:56.714Z,78.13
2024-02-19T00:43:56.656Z,77.21
2024-02-19T00:44:56.662Z,78.32
2024-02-19T00:45:56.877Z,75.44
2024-02-19T00:46:56.796Z,73.15
2024-02-19T00:47:56.824Z,63.22
2024-02-19T00:48:56.834Z,57.75
2024-02-19T00:49:57.005Z,60.25
2024-02-19T00:50:56.893Z,57.16
2024-02-19T00:51:56.966Z,57.48
2024-02-19T00:52:57.010Z,62.06
2024-02-19T00:53:57.065Z,63.00
2024-02-19T00:54:57.183Z,63.83
2024-02-19T00:55:57.141Z,64.38
2024-02-19T00:56:57.251Z,63.34
2024-02-19T00:57:57.317Z,67.66
2024-02-19T00:58:57.299Z,67.09
2024-02-19T00:59:57.348Z,67.48
2024-02-19T01:00:57.454Z,66.87
2024-02-19T01:01:57.650Z,66.30
2024-02-19T01:02:57.513Z,66.16
2024-02-19T01:03:57.568Z,65.96
2024-02-19T01:04:57.649Z,65.33
2024-02-19T01:05:57.633Z,64.19
2024-02-19T01:06:57.735Z,64.65
2024-02-19T01:07:58.087Z,64.52
2024-02-19T01:08:57.640Z,65.19
2024-02-19T01:09:57.784Z,65.70
2024-02-19T01:10:57.781Z,65.89
2024-02-19T01:11:57.865Z,66.84
2024-02-19T01:12:57.914Z,66.39
2024-02-19T01:13:57.875Z,66.94
2024-02-19T01:14:57.980Z,65.31
2024-02-19T01:15:57.979Z,66.17
2024-02-19T01:16:58.038Z,67.34
2024-02-19T01:17:58.100Z,66.69
2024-02-19T01:18:58.264Z,67.02
2024-02-19T01:19:58.263Z,66.92
2024-02-19T01:20:58.218Z,67.72
2024-02-19T01:21:58.318Z,67.99
2024-02-19T01:22:58.332Z,67.17
2024-02-19T01:23:58.252Z,67.99
2024-02-19T01:24:58.351Z,67.74
2024-02-19T01:25:58.394Z,66.75
2024-02-19T01:26:58.408Z,68.87
2024-02-19T01:27:58.487Z,69.10
2024-02-19T01:28:58.472Z,71.40
2024-02-19T01:29:58.512Z,72.83
2024-02-19T01:30:58.623Z,69.90
2024-02-19T01:31:58.641Z,67.27
2024-02-19T01:32:58.736Z,67.12
2024-02-19T01:33:58.788Z,63.99
2024-02-19T01:34:59.010Z,66.33
2024-02-19T01:35:58.871Z,64.61
2024-02-19T01:36:59.029Z,64.99
2024-02-19T01:37:58.945Z,65.75
2024-02-19T01:38:58.948Z,62.01
2024-02-19T01:39:59.004Z,63.51
2024-02-19T01:40:59.105Z,61.64
2024-02-19T01:41:59.282Z,59.01
2024-02-19T01:42:59.254Z,55.46
2024-02-19T01:43:59.219Z,51.64
2024-02-19T01:44:59.286Z,51.59
2024-02-19T01:45:59.253Z,51.17
2024-02-19T01:46:59.290Z,49.67
2024-02-19T01:47:59.539Z,48.91
2024-02-19T01:48:59.382Z,50.05
2024-02-19T01:49:59.469Z,50.49
2024-02-19T01:50:59.501Z,47.26
2024-02-19T01:51:59.584Z,47.35
2024-02-19T01:52:59.554Z,48.10
2024-02-19T01:53:59.583Z,46.33
2024-02-19T01:54:59.712Z,47.41
2024-02-19T01:55:59.711Z,47.39
2024-02-19T01:56:59.699Z,47.03
2024-02-19T01:57:59.862Z,47.96
2024-02-19T01:58:59.842Z,47.41
2024-02-19T01:59:59.842Z,47.12
2024-02-19T02:01:00.084Z,48.25
2024-02-19T02:01:59.995Z,49.26
2024-02-19T02:03:00.103Z,48.94
2024-02-19T02:04:00.126Z,49.79
2024-02-19T02:05:00.059Z,50.28
2024-02-19T02:06:00.133Z,49.28
2024-02-19T02:07:00.270Z,48.58
2024-02-19T02:08:00.875Z,47.19
2024-02-19T02:09:00.206Z,45.65
2024-02-19T02:10:00.329Z,46.56
2024-02-19T02:11:00.415Z,46.30
2024-02-19T02:12:00.309Z,46.84
2024-02-19T02:13:00.475Z,47.96
2024-02-19T02:14:00.430Z,47.36
2024-02-19T02:15:00.455Z,48.49
2024-02-19T02:16:00.507Z,48.37
2024-02-19T02:17:00.545Z,49.48
2024-02-19T02:18:00.629Z,47.36
2024-02-19T02:19:00.778Z,42.85
2024-02-19T02:20:00.852Z,42.95
2024-02-19T02:21:00.710Z,41.63
2024-02-19T02:22:00.743Z,41.68
2024-02-19T02:23:00.694Z,42.65
2024-02-19T02:24:00.805Z,42.86
2024-02-19T02:25:00.833Z,43.44
2024-02-19T02:26:00.817Z,43.80
2024-02-19T02:27:00.849Z,45.36
2024-02-19T02:28:00.998Z,45.08
2024-02-19T02:29:00.952Z,44.31
2024-02-19T02:30:00.968Z,43.60
2024-02-19T02:31:01.096Z,42.31
2024-02-19T02:32:01.069Z,41.38
2024-02-19T02:33:01.221Z,41.92
2024-02-19T02:34:01.445Z,43.17
2024-02-19T02:35:01.148Z,43.86
2024-02-19T02:36:01.160Z,43.01
2024-02-19T02:37:01.245Z,42.79
2024-02-19T02:38:01.403Z,40.52
2024-02-19T02:39:01.344Z,41.36
2024-02-19T02:40:01.293Z,40.60
2024-02-19T02:41:01.336Z,40.69
2024-02-19T02:42:01.308Z,40.13
2024-02-19T02:43:01.373Z,40.39
2024-02-19T02:44:01.354Z,40.48
2024-02-19T02:45:01.364Z,37.92
2024-02-19T02:46:01.486Z,37.23
2024-02-19T02:47:01.475Z,37.07
2024-02-19T02:48:01.653Z,36.35
2024-02-19T02:49:01.808Z,36.16
2024-02-19T02:50:01.666Z,34.65
2024-02-19T02:51:01.695Z,34.26
2024-02-19T02:52:01.748Z,37.80
2024-02-19T02:53:01.779Z,37.83
2024-02-19T02:54:01.763Z,37.12
2024-02-19T02:55:01.846Z,36.58
2024-02-19T02:56:01.846Z,35.33
2024-02-19T02:57:01.914Z,35.09
2024-02-19T02:58:01.988Z,34.78
2024-02-19T02:59:02.023Z,33.88
2024-02-19T03:00:02.050Z,34.02
2024-02-19T03:01:02.163Z,32.55
2024-02-19T03:02:02.199Z,31.69
2024-02-19T03:03:02.186Z,31.05
2024-02-19T03:04:02.263Z,32.02
2024-02-19T03:05:02.270Z,31.42
2024-02-19T03:06:02.324Z,31.54
2024-02-19T03:07:02.439Z,31.71
2024-02-19T03:08:02.395Z,32.12
2024-02-19T03:09:02.453Z,32.82
2024-02-19T03:10:02.531Z,32.21
2024-02-19T03:11:02.598Z,32.59
2024-02-19T03:12:02.545Z,31.54
2024-02-19T03:13:02.615Z,29.53
2024-02-19T03:14:02.668Z,29.07
2024-02-19T03:15:02.674Z,28.68
2024-02-19T03:16:02.818Z,28.97
2024-02-19T03:17:02.621Z,28.28
2024-02-19T03:18:02.768Z,27.89
2024-02-19T03:19:02.767Z,28.22
2024-02-19T03:20:02.748Z,29.81
2024-02-19T03:21:02.827Z,30.40
2024-02-19T03:22:02.869Z,31.03
2024-02-19T03:23:02.970Z,31.19
2024-02-19T03:24:02.984Z,31.86
2024-02-19T03:25:03.158Z,34.26
2024-02-19T03:26:03.114Z,35.30
2024-02-19T03:27:03.080Z,35.15
2024-02-19T03:28:03.152Z,34.26
2024-02-19T03:29:03.150Z,33.27
2024-02-19T03:30:03.250Z,32.83
2024-02-19T03:31:03.332Z,31.22
2024-02-19T03:32:03.314Z,31.52
2024-02-19T03:33:03.502Z,31.14
2024-02-19T03:34:03.539Z,32.54
2024-02-19T03:35:03.454Z,32.94
2024-02-19T03:36:03.426Z,32.09
2024-02-19T03:37:03.480Z,33.39
2024-02-19T03:38:03.533Z,34.34
2024-02-19T03:39:03.696Z,32.77
2024-02-19T03:40:03.695Z,32.37
2024-02-19T03:41:03.689Z,30.64
2024-02-19T03:42:03.747Z,30.38
2024-02-19T03:43:03.879Z,30.76
2024-02-19T03:44:03.843Z,29.76
2024-02-19T03:45:04.755Z,29.89
2024-02-19T03:46:04.008Z,31.54
2024-02-19T03:47:03.989Z,30.33
2024-02-19T03:48:04.043Z,30.14
2024-02-19T03:49:04.217Z,29.01
2024-02-19T03:50:04.083Z,28.21
2024-02-19T03:51:04.094Z,26.81
2024-02-19T03:52:04.252Z,25.98
2024-02-19T03:53:04.214Z,27.54
2024-02-19T03:54:04.368Z,27.91
2024-02-19T03:55:04.316Z,28.49
2024-02-19T03:56:04.377Z,29.77
2024-02-19T03:57:04.414Z,31.94
2024-02-19T03:58:04.460Z,33.78
2024-02-19T03:59:04.482Z,35.60
2024-02-19T04:00:04.458Z,36.14
2024-02-19T04:01:08.217Z,36.12
2024-02-19T04:02:04.527Z,36.19
2024-02-19T04:03:04.524Z,35.96
2024-02-19T04:04:04.607Z,35.81
2024-02-19T04:05:04.567Z,36.79
2024-02-19T04:06:04.542Z,35.51
2024-02-19T04:07:04.647Z,35.75
2024-02-19T04:08:06.557Z,35.36
2024-02-19T04:09:04.532Z,35.36
2024-02-19T04:10:04.581Z,34.98
2024-02-19T04:11:04.553Z,35.58
2024-02-19T04:12:04.538Z,36.29
2024-02-19T04:13:04.581Z,33.03
2024-02-19T04:14:04.588Z,31.73
2024-02-19T04:15:04.570Z,31.75
2024-02-19T04:16:04.609Z,31.97
2024-02-19T04:17:06.948Z,32.29
2024-02-19T04:18:04.703Z,32.34
2024-02-19T04:19:04.684Z,32.53
2024-02-19T04:20:04.582Z,32.76
2024-02-19T04:21:04.548Z,33.27
2024-02-19T04:22:04.757Z,34.55
2024-02-19T04:23:04.609Z,33.57
2024-02-19T04:24:04.558Z,34.11
2024-02-19T04:25:04.610Z,34.64
2024-02-19T04:26:04.549Z,34.18
2024-02-19T04:27:04.560Z,34.59
2024-02-19T04:28:04.685Z,34.07
2024-02-19T04:29:04.553Z,33.40
2024-02-19T04:30:04.596Z,34.39
2024-02-19T04:31:04.624Z,34.01
2024-02-19T04:32:04.586Z,34.13
2024-02-19T04:33:04.681Z,35.95
2024-02-19T04:34:04.742Z,37.31
2024-02-19T04:35:04.720Z,36.70
2024-02-19T04:36:05.650Z,36.73
2024-02-19T04:37:04.606Z,35.08
2024-02-19T04:38:04.642Z,36.76
2024-02-19T04:39:04.666Z,35.27
2024-02-19T04:40:04.622Z,36.56
2024-02-19T04:41:04.725Z,36.71
2024-02-19T04:42:04.590Z,36.58
2024-02-19T04:43:05.103Z,35.74
2024-02-19T04:44:04.613Z,36.36
2024-02-19T04:45:04.720Z,35.17
2024-02-19T04:46:04.741Z,34.31
2024-02-19T04:47:04.773Z,34.33
2024-02-19T04:48:04.926Z,34.49
2024-02-19T04:49:04.961Z,34.86
2024-02-19T04:50:05.009Z,35.23
2024-02-19T04:51:04.943Z,35.68
2024-02-19T04:52:05.078Z,34.86
2024-02-19T04:53:05.019Z,35.05
2024-02-19T04:54:04.940Z,35.03
2024-02-19T04:55:05.073Z,34.29
2024-02-19T04:56:04.970Z,33.87
2024-02-19T04:57:05.166Z,32.93
2024-02-19T04:58:12.911Z,0.50
2024-02-19T04:59:12.884Z,0.50
2024-02-19T05:00:12.917Z,0.50
2024-02-19T05:01:12.988Z,0.50
2024-02-19T05:02:12.937Z,0.50
2024-02-19T05:03:14.807Z,0.52
2024-02-19T05:04:12.985Z,0.53
2024-02-19T05:05:13.034Z,0.53
2024-02-19T05:06:12.882Z,0.52
2024-02-19T05:07:12.866Z,0.54
2024-02-19T05:08:12.953Z,0.54
2024-02-19T05:09:12.851Z,0.50
2024-02-19T05:10:12.910Z,0.53
2024-02-19T05:11:12.981Z,0.51
2024-02-19T05:12:12.869Z,0.52
2024-02-19T05:13:13.023Z,0.54
2024-02-19T05:14:12.941Z,0.53
2024-02-19T05:15:12.928Z,0.56
2024-02-19T05:16:12.919Z,0.54
2024-02-19T05:17:12.894Z,0.54
2024-02-19T05:18:13.058Z,0.51
2024-02-19T05:19:13.082Z,0.50
2024-02-19T05:20:12.916Z,0.52
2024-02-19T05:21:12.889Z,0.56
2024-02-19T05:22:12.960Z,0.57
2024-02-19T05:23:12.935Z,0.54
2024-02-19T05:24:12.906Z,0.54
2024-02-19T05:25:12.855Z,0.54
2024-02-19T05:26:12.989Z,0.55
2024-02-19T05:27:12.933Z,0.54
2024-02-19T05:28:13.115Z,0.56
2024-02-19T05:29:12.914Z,0.57
2024-02-19T05:30:12.982Z,0.56
2024-02-19T05:31:13.029Z,0.54
2024-02-19T05:32:13.577Z,0.56
2024-02-19T05:33:12.915Z,0.56
2024-02-19T05:34:13.138Z,0.57
2024-02-19T05:35:12.907Z,0.59
2024-02-19T05:36:12.903Z,0.61
2024-02-19T05:37:12.945Z,0.60
2024-02-19T05:38:12.898Z,0.55
2024-02-19T05:39:12.950Z,0.56
2024-02-19T05:40:13.002Z,0.54
2024-02-19T05:41:12.923Z,0.53
2024-02-19T05:42:12.901Z,0.54
2024-02-19T05:43:12.980Z,0.56
2024-02-19T05:44:12.852Z,0.56
2024-02-19T05:45:12.976Z,0.55
2024-02-19T05:46:12.952Z,0.60
2024-02-19T05:47:12.893Z,0.56
2024-02-19T05:48:12.964Z,0.56
2024-02-19T05:49:12.974Z,0.54
2024-02-19T05:50:13.095Z,0.56
2024-02-19T05:51:12.889Z,0.54
2024-02-19T05:52:12.957Z,0.56
2024-02-19T05:53:13.009Z,0.58
2024-02-19T05:54:12.899Z,0.54
2024-02-19T05:55:13.041Z,0.54
2024-02-19T05:56:13.001Z,0.52
2024-02-19T05:57:13.051Z,0.53
2024-02-19T05:58:13.228Z,0.53
2024-02-19T05:59:13.150Z,0.54
2024-02-19T06:00:13.171Z,0.55
2024-02-19T06:01:13.238Z,0.55
2024-02-19T06:02:13.351Z,0.54
2024-02-19T06:03:14.295Z,0.55
2024-02-19T06:04:13.392Z,0.57
2024-02-19T06:05:13.364Z,0.58
2024-02-19T06:06:13.377Z,0.59
2024-02-19T06:07:13.534Z,0.58
2024-02-19T06:08:13.509Z,0.56
2024-02-19T06:09:13.459Z,0.53
2024-02-19T06:10:13.609Z,0.53
2024-02-19T06:11:13.572Z,0.52
2024-02-19T06:12:13.545Z,0.55
2024-02-19T06:13:13.737Z,0.57
2024-02-19T06:14:13.673Z,0.58
2024-02-19T06:15:13.703Z,0.57
2024-02-19T06:16:13.687Z,0.55
2024-02-19T06:17:13.892Z,0.56
2024-02-19T06:18:13.923Z,0.56
2024-02-19T06:19:14.106Z,0.56
2024-02-19T06:20:13.946Z,0.56
2024-02-19T06:21:14.034Z,0.54
2024-02-19T06:22:15.565Z,0.55
2024-02-19T06:23:14.368Z,0.56
2024-02-19T06:24:14.140Z,0.57
2024-02-19T06:25:14.245Z,0.57
2024-02-19T06:26:14.307Z,0.59
2024-02-19T06:27:14.304Z,0.60
2024-02-19T06:28:14.626Z,0.61
2024-02-19T06:29:14.439Z,0.60
2024-02-19T06:30:14.535Z,0.61
2024-02-19T06:31:14.627Z,0.59
2024-02-19T06:32:14.603Z,0.63
2024-02-19T06:33:14.779Z,0.64
2024-02-19T06:34:14.842Z,0.63
2024-02-19T06:35:14.808Z,0.63
2024-02-19T06:36:14.733Z,0.64
2024-02-19T06:37:14.783Z,0.63
2024-02-19T06:38:14.811Z,0.65
2024-02-19T06:39:14.855Z,0.64
2024-02-19T06:40:14.997Z,0.63
2024-02-19T06:41:14.969Z,0.63
2024-02-19T06:42:14.992Z,0.65
2024-02-19T06:43:15.099Z,0.64
2024-02-19T06:44:15.061Z,0.65
2024-02-19T06:45:15.064Z,0.66
2024-02-19T06:46:15.103Z,0.67
2024-02-19T06:47:18.606Z,0.66
2024-02-19T06:48:15.329Z,0.67
2024-02-19T06:49:15.261Z,0.69
2024-02-19T06:50:15.275Z,0.64
2024-02-19T06:51:15.174Z,0.64
2024-02-19T06:52:15.124Z,0.64
2024-02-19T06:53:15.266Z,0.61
2024-02-19T06:54:15.140Z,0.60
2024-02-19T06:55:15.413Z,0.59
2024-02-19T06:56:17.047Z,0.59
2024-02-19T06:57:15.130Z,0.62
2024-02-19T06:58:16.391Z,0.62
2024-02-19T06:59:15.381Z,0.62
2024-02-19T07:00:15.199Z,0.62
2024-02-19T07:01:15.308Z,0.62
2024-02-19T07:02:15.253Z,0.63
2024-02-19T07:03:15.301Z,0.63
2024-02-19T07:04:15.348Z,0.65
2024-02-19T07:05:15.587Z,0.66
2024-02-19T07:06:15.373Z,0.65
2024-02-19T07:07:15.428Z,0.62
2024-02-19T07:08:15.597Z,0.64
2024-02-19T07:09:15.407Z,0.59
2024-02-19T07:10:15.485Z,0.56
2024-02-19T07:11:15.637Z,0.59
2024-02-19T07:12:15.571Z,0.57
2024-02-19T07:13:15.738Z,0.59
2024-02-19T07:14:15.658Z,0.62
2024-02-19T07:15:15.660Z,0.62
2024-02-19T07:16:15.911Z,0.64
2024-02-19T07:17:15.813Z,0.65
2024-02-19T07:18:15.986Z,0.65
2024-02-19T07:19:16.050Z,0.67
2024-02-19T07:20:16.185Z,0.66
2024-02-19T07:21:16.000Z,0.67
2024-02-19T07:22:16.092Z,0.67
2024-02-19T07:23:16.099Z,0.69
2024-02-19T07:24:16.158Z,0.70
2024-02-19T07:26:16.311Z,0.68
2024-02-19T07:27:16.354Z,0.70
2024-02-19T07:28:16.335Z,0.64
2024-02-19T07:29:16.259Z,0.62
2024-02-19T07:30:16.359Z,0.59
2024-02-19T07:31:16.425Z,0.59
2024-02-19T07:32:16.492Z,0.59
2024-02-19T07:33:16.621Z,0.62
2024-02-19T07:34:16.521Z,0.61
2024-02-19T07:35:16.519Z,0.61
2024-02-19T07:36:16.489Z,0.61
2024-02-19T07:37:16.628Z,0.62
2024-02-19T07:38:16.668Z,0.61
2024-02-19T07:39:16.604Z,0.59
2024-02-19T07:40:16.652Z,0.62
2024-02-19T07:41:16.626Z,0.59
2024-02-19T07:42:16.657Z,0.58
2024-02-19T07:43:16.714Z,0.62
2024-02-19T07:44:16.773Z,0.61
2024-02-19T07:45:18.175Z,0.60
2024-02-19T07:46:18.045Z,0.60
2024-02-19T07:47:18.478Z,0.60
2024-02-19T07:48:18.492Z,0.60
2024-02-19T07:49:17.627Z,0.61
2024-02-19T07:50:17.324Z,0.62
2024-02-19T07:51:17.636Z,0.65
2024-02-19T07:52:17.447Z,0.66
2024-02-19T07:53:18.233Z,0.67
2024-02-19T07:54:17.551Z,0.63
2024-02-19T07:55:17.388Z,0.65
2024-02-19T07:56:17.397Z,0.65
2024-02-19T07:57:17.470Z,0.66
2024-02-19T07:58:17.598Z,0.65
2024-02-19T07:59:17.486Z,0.65
2024-02-19T08:00:17.596Z,0.64
2024-02-19T08:01:17.731Z,0.66
2024-02-19T08:02:17.769Z,0.67
2024-02-19T08:03:17.712Z,0.68
2024-02-19T08:04:17.799Z,0.69
2024-02-19T08:05:18.044Z,0.70
2024-02-19T08:06:17.770Z,0.71
2024-02-19T08:07:17.919Z,0.70
2024-02-19T08:08:17.985Z,0.68
2024-02-19T08:09:19.507Z,0.67
2024-02-19T08:10:17.902Z,0.66
2024-02-19T08:11:17.908Z,0.66
2024-02-19T08:12:18.249Z,0.67
2024-02-19T08:13:18.982Z,0.68
2024-02-19T08:14:18.170Z,0.65
2024-02-19T08:15:18.141Z,0.64
2024-02-19T08:16:18.445Z,0.63
2024-02-19T08:17:18.224Z,0.64
2024-02-19T08:18:18.432Z,0.66
2024-02-19T08:19:18.548Z,0.64
2024-02-19T08:20:18.354Z,0.63
2024-02-19T08:21:18.353Z,0.62
2024-02-19T08:22:20.625Z,0.58
2024-02-19T08:23:36.329Z,0.61
2024-02-19T08:24:19.401Z,0.61
2024-02-19T08:25:18.552Z,0.62
2024-02-19T08:26:18.948Z,0.62
2024-02-19T08:27:18.531Z,0.62
2024-02-19T08:28:18.600Z,0.60
2024-02-19T08:29:18.614Z,0.58
2024-02-19T08:30:18.528Z,0.60
2024-02-19T08:31:18.604Z,0.58
2024-02-19T08:32:18.526Z,0.60
2024-02-19T08:33:18.530Z,0.58
2024-02-19T08:34:18.602Z,0.57
2024-02-19T08:35:18.584Z,0.53
2024-02-19T08:36:18.494Z,0.51
2024-02-19T08:37:18.796Z,0.52
2024-02-19T08:38:18.562Z,0.54
2024-02-19T08:39:18.539Z,0.53
2024-02-19T08:40:18.772Z,0.54
2024-02-19T08:42:30.774Z,0.50
2024-02-19T08:43:32.858Z,0.50
2024-02-19T08:44:32.129Z,0.50
2024-02-19T08:45:34.318Z,0.50
2024-02-19T08:46:29.730Z,0.50
2024-02-19T08:47:28.059Z,0.50
2024-02-19T08:48:28.516Z,0.50
2024-02-19T08:49:28.064Z,0.50
2024-02-19T08:50:27.996Z,0.50
2024-02-19T08:51:27.995Z,0.50
2024-02-19T08:52:28.155Z,0.51
2024-02-19T08:53:27.992Z,0.51
2024-02-19T08:54:27.978Z,0.53
2024-02-19T08:55:28.139Z,0.51
2024-02-19T08:56:28.002Z,0.52
2024-02-19T08:57:27.923Z,0.51
2024-02-19T08:58:28.097Z,0.53
2024-02-19T08:59:27.968Z,0.52
2024-02-19T09:00:30.247Z,0.51
2024-02-19T09:01:28.106Z,0.51
2024-02-19T09:02:28.032Z,0.50
2024-02-19T09:03:28.110Z,0.49
2024-02-19T09:04:28.097Z,0.47
2024-02-19T09:05:27.965Z,0.49
2024-02-19T09:06:28.007Z,0.52
2024-02-19T09:07:28.020Z,0.51
2024-02-19T09:08:28.006Z,0.52
2024-02-19T09:09:28.018Z,0.53
2024-02-19T09:10:27.989Z,0.51
2024-02-19T09:11:28.122Z,0.51
2024-02-19T09:12:27.967Z,0.51
2024-02-19T09:13:28.097Z,0.52
2024-02-19T09:14:27.990Z,0.50
2024-02-19T09:15:28.030Z,0.50
2024-02-19T09:16:28.871Z,0.51
2024-02-19T09:17:28.730Z,0.53
2024-02-19T09:18:28.701Z,0.50
2024-02-19T09:19:28.088Z,0.50
2024-02-19T09:20:28.231Z,0.50
2024-02-19T09:21:27.923Z,0.50
2024-02-19T09:22:28.070Z,0.48
2024-02-19T09:23:30.912Z,0.39
2024-02-19T09:24:28.033Z,0.41
2024-02-19T09:25:28.227Z,0.39
2024-02-19T09:26:28.000Z,0.45
2024-02-19T09:27:28.059Z,0.50
2024-02-19T09:28:28.067Z,0.50
2024-02-19T09:29:27.994Z,0.48
2024-02-19T09:30:28.016Z,0.50
2024-02-19T09:31:28.088Z,0.50
2024-02-19T09:32:28.011Z,0.50
2024-02-19T09:33:28.666Z,0.49
2024-02-19T09:34:28.080Z,0.57
2024-02-19T09:35:29.052Z,0.62
2024-02-19T09:36:28.326Z,0.60
2024-02-19T09:37:28.897Z,0.60
2024-02-19T09:38:28.484Z,0.52
2024-02-19T09:39:28.032Z,0.53
2024-02-19T09:40:28.082Z,0.56
2024-02-19T09:41:28.069Z,0.54
2024-02-19T09:42:28.159Z,0.53
2024-02-19T09:43:28.411Z,0.54
2024-02-19T09:44:28.296Z,0.56
2024-02-19T09:45:29.023Z,0.62
2024-02-19T09:46:28.966Z,0.55
2024-02-19T09:47:28.781Z,0.55
2024-02-19T09:48:28.931Z,0.57
2024-02-19T09:49:28.907Z,0.61
2024-02-19T09:50:28.964Z,0.69
2024-02-19T09:51:36.540Z,0.79
2024-02-19T09:52:30.610Z,0.55
2024-02-19T09:53:28.804Z,0.57
2024-02-19T09:54:28.707Z,0.60
2024-02-19T09:55:28.855Z,0.64
2024-02-19T09:56:28.766Z,0.73
2024-02-19T09:57:28.758Z,0.74
2024-02-19T09:58:28.912Z,0.75
2024-02-19T09:59:28.898Z,0.73
2024-02-19T10:00:28.915Z,0.78
2024-02-19T10:01:29.052Z,0.52
2024-02-19T10:02:29.066Z,0.50
2024-02-19T10:03:29.082Z,0.50
2024-02-19T10:04:29.215Z,0.58
2024-02-19T10:05:29.312Z,0.50
2024-02-19T10:06:29.799Z,0.52
2024-02-19T10:07:29.179Z,0.58
2024-02-19T10:08:29.247Z,0.60
2024-02-19T10:09:29.374Z,0.49
2024-02-19T10:10:29.341Z,0.52
2024-02-19T10:11:29.312Z,0.63
2024-02-19T10:12:29.286Z,0.74
2024-02-19T10:13:29.640Z,0.76
2024-02-19T10:14:29.736Z,0.50
2024-02-19T10:15:29.431Z,0.54
2024-02-19T10:16:29.637Z,0.59
2024-02-19T10:17:29.564Z,0.61
2024-02-19T10:18:29.763Z,0.65
2024-02-19T10:19:29.625Z,0.51
2024-02-19T10:20:29.685Z,0.46
2024-02-19T10:21:29.642Z,0.50
2024-02-19T10:22:29.642Z,0.51
2024-02-19T10:23:29.672Z,0.50
2024-02-19T10:24:29.672Z,0.50
2024-02-19T10:25:29.683Z,0.49
2024-02-19T10:26:29.953Z,0.50
2024-02-19T10:27:29.842Z,0.50
2024-02-19T10:28:30.049Z,0.51
2024-02-19T10:29:30.104Z,0.50
2024-02-19T10:30:30.105Z,0.57
2024-02-19T10:31:30.111Z,0.52
2024-02-19T10:32:30.098Z,0.50
2024-02-19T10:33:30.206Z,0.51
2024-02-19T10:34:30.152Z,0.50
2024-02-19T10:35:30.223Z,0.52
2024-02-19T10:36:30.148Z,0.48
2024-02-19T10:37:30.215Z,0.46
2024-02-19T10:38:30.329Z,0.49
2024-02-19T10:39:30.327Z,0.49
2024-02-19T10:40:34.522Z,0.47
2024-02-19T10:41:30.517Z,0.43
2024-02-19T10:42:31.129Z,0.46
2024-02-19T10:43:30.514Z,0.46
2024-02-19T10:44:30.313Z,0.39
2024-02-19T10:45:30.309Z,0.43
2024-02-19T10:46:30.990Z,0.40
2024-02-19T10:47:30.376Z,0.42
2024-02-19T10:48:30.446Z,0.50
2024-02-19T10:49:30.419Z,0.48
2024-02-19T10:50:30.535Z,0.41
2024-02-19T10:51:30.393Z,0.54
2024-02-19T10:52:30.569Z,0.55
2024-02-19T10:53:30.350Z,0.45
2024-02-19T10:54:30.355Z,0.42
2024-02-19T10:55:40.953Z,0.50
2024-02-19T10:56:31.328Z,0.54
2024-02-19T10:57:30.325Z,0.57
2024-02-19T10:58:30.514Z,0.58
2024-02-19T10:59:30.322Z,0.58
2024-02-19T11:00:30.410Z,0.54
2024-02-19T11:01:30.393Z,0.49
2024-02-19T11:02:30.387Z,0.50
2024-02-19T11:03:30.397Z,0.51
2024-02-19T11:04:30.411Z,0.52
2024-02-19T11:05:30.542Z,0.50
2024-02-19T11:06:31.845Z,0.50
2024-02-19T11:07:30.452Z,0.57
2024-02-19T11:08:30.368Z,0.71
2024-02-19T11:09:30.976Z,0.74
2024-02-19T11:10:30.496Z,0.95
2024-02-19T11:11:30.468Z,1.05
2024-02-19T11:12:30.431Z,1.29
2024-02-19T11:13:30.645Z,1.72
2024-02-19T11:14:30.436Z,2.13
2024-02-19T11:15:30.410Z,1.93
2024-02-19T11:16:30.485Z,2.20
2024-02-19T11:17:30.430Z,2.28
2024-02-19T11:18:30.552Z,2.44
2024-02-19T11:19:30.571Z,2.98
2024-02-19T11:20:30.404Z,2.14
2024-02-19T11:21:30.454Z,1.69
2024-02-19T11:22:30.391Z,1.52
2024-02-19T11:23:30.627Z,1.44
2024-02-19T11:24:30.408Z,1.55
2024-02-19T11:25:30.639Z,1.86
2024-02-19T11:26:30.402Z,2.51
2024-02-19T11:27:30.458Z,2.91
2024-02-19T11:28:30.474Z,2.91
2024-02-19T11:29:39.808Z,3.16
2024-02-19T11:30:31.434Z,2.77
2024-02-19T11:31:30.499Z,2.54
2024-02-19T11:32:30.560Z,1.88
2024-02-19T11:33:30.561Z,2.10
2024-02-19T11:34:30.672Z,1.57
2024-02-19T11:35:32.731Z,1.30
2024-02-19T11:36:30.477Z,1.23
2024-02-19T11:37:30.830Z,1.25
2024-02-19T11:38:31.688Z,1.34
2024-02-19T11:39:31.515Z,1.30
2024-02-19T11:40:33.616Z,1.32
2024-02-19T11:41:30.514Z,1.31
2024-02-19T11:42:30.612Z,1.36
2024-02-19T11:43:30.631Z,1.42
2024-02-19T11:44:30.646Z,1.67
2024-02-19T11:45:30.434Z,1.88
2024-02-19T11:46:30.519Z,1.69
2024-02-19T11:47:30.558Z,1.51
2024-02-19T11:48:30.521Z,1.90
2024-02-19T11:49:30.708Z,1.66
2024-02-19T11:50:30.682Z,1.62
2024-02-19T11:51:30.461Z,1.62
2024-02-19T11:52:31.374Z,1.67
2024-02-19T11:53:30.615Z,1.46
2024-02-19T11:54:30.501Z,1.28
2024-02-19T11:55:30.874Z,1.45
2024-02-19T11:56:30.570Z,1.37
2024-02-19T11:57:30.644Z,1.13
2024-02-19T11:58:30.737Z,1.28
2024-02-19T11:59:30.619Z,1.31
2024-02-19T12:00:30.500Z,2.04
2024-02-19T12:01:30.502Z,1.99
2024-02-19T12:02:30.522Z,2.67
2024-02-19T12:03:30.498Z,3.09
2024-02-19T12:04:30.646Z,2.83
2024-02-19T12:05:30.593Z,2.30
2024-02-19T12:06:31.204Z,2.16
2024-02-19T12:07:33.168Z,1.61
2024-02-19T12:08:30.603Z,1.51
2024-02-19T12:09:30.635Z,1.57
2024-02-19T12:10:31.041Z,1.49
2024-02-19T12:11:32.227Z,1.41
2024-02-19T12:12:30.510Z,1.42
2024-02-19T12:13:30.759Z,1.49
2024-02-19T12:14:30.716Z,1.63
2024-02-19T12:15:30.761Z,1.74
2024-02-19T12:16:30.615Z,1.67
2024-02-19T12:17:33.249Z,1.59
2024-02-19T12:18:30.667Z,1.60
2024-02-19T12:19:30.774Z,1.62
2024-02-19T12:20:30.551Z,1.81
2024-02-19T12:21:30.672Z,2.41
2024-02-19T12:22:30.538Z,2.50
2024-02-19T12:23:30.574Z,2.34
2024-02-19T12:24:30.625Z,1.89
2024-02-19T12:25:30.707Z,2.01
2024-02-19T12:26:30.729Z,1.88
2024-02-19T12:27:30.715Z,1.89
2024-02-19T12:28:30.667Z,2.29
2024-02-19T12:29:30.737Z,2.17
2024-02-19T12:30:30.546Z,1.77
2024-02-19T12:31:30.534Z,1.66
2024-02-19T12:32:30.552Z,1.68
2024-02-19T12:33:35.277Z,1.67
2024-02-19T12:53:39.895Z,0.50
2024-02-19T12:54:39.485Z,0.50
2024-02-19T12:55:39.556Z,0.50
2024-02-19T12:56:40.160Z,0.50
2024-02-19T12:57:39.425Z,0.50
2024-02-19T12:58:39.451Z,0.49
2024-02-19T12:59:39.476Z,0.50
2024-02-19T13:00:39.414Z,0.44
2024-02-19T13:01:39.490Z,0.42
2024-02-19T13:02:39.465Z,0.49
2024-02-19T13:03:39.482Z,0.51
2024-02-19T13:04:39.652Z,0.50
2024-02-19T13:05:39.552Z,0.52
2024-02-19T13:06:39.549Z,0.55
2024-02-19T13:07:39.595Z,0.60
2024-02-19T13:08:39.543Z,0.69
2024-02-19T13:09:39.459Z,0.71
2024-02-19T13:10:39.568Z,0.71
2024-02-19T13:11:39.492Z,0.58
2024-02-19T13:12:40.219Z,0.53
2024-02-19T13:13:40.337Z,0.63
2024-02-19T13:14:39.907Z,0.55
2024-02-19T13:15:39.848Z,0.49
2024-02-19T13:16:39.953Z,0.44
2024-02-19T13:17:43.403Z,0.41
2024-02-19T13:18:40.077Z,0.35
2024-02-19T13:19:40.098Z,0.27
2024-02-19T13:20:40.086Z,0.18
2024-02-19T13:21:39.935Z,0.16
2024-02-19T13:22:40.145Z,0.16
2024-02-19T13:23:40.099Z,0.19
2024-02-19T13:24:40.268Z,0.22
2024-02-19T13:25:40.659Z,0.30
2024-02-19T13:26:40.794Z,0.46
2024-02-19T13:27:40.482Z,0.73
2024-02-19T13:28:40.224Z,0.97
2024-02-19T13:29:40.369Z,0.98
2024-02-19T13:30:40.284Z,1.02